Time;durP1;ratioP1;P1;durP2;ratioP2;P2;SDS_P1;SDS_P2;PMS_P1;PMS_P2;Temp;Humidity;BMP_temperature;BMP_pressure;BME280_temperature;BME280_humidity;BME280_pressure;Samples;Min_cycle;Max_cycle;Signal;HPM_P1;HPM_P2
2022/04/19 00:01:22;;;;;;;12.43;11.23;;;;;;;;;;5040520;28;20392;-83
2022/04/19 00:03:48;;;;;;;12.65;11.35;;;;;;;;;;5041521;28;20408;-83
2022/04/19 00:06:14;;;;;;;13.25;12.02;;;;;;;;;;5045876;28;20099;-83
2022/04/19 00:08:40;;;;;;;12.82;11.63;;;;;;;;;;5043126;28;20044;-84
2022/04/19 00:11:06;;;;;;;12.65;11.48;;;;;;;;;;5045664;28;20072;-83
2022/04/19 00:13:32;;;;;;;12.32;11.13;;;;;;;;;;5045890;28;20083;-83
2022/04/19 00:15:58;;;;;;;12.63;11.43;;;;;;;;;;5042089;28;20218;-84
2022/04/19 00:18:25;;;;;;;12.13;10.93;;;;;;;;;;5042186;28;20057;-83
2022/04/19 00:20:51;;;;;;;12.65;11.38;;;;;;;;;;5041651;28;20064;-84
2022/04/19 00:23:17;;;;;;;13.20;12.00;;;;;;;;;;5042697;28;20064;-83
2022/04/19 00:25:44;;;;;;;12.95;11.75;;;;;;;;;;5042669;28;20040;-83
2022/04/19 00:28:11;;;;;;;13.40;12.15;;;;;;;;;;5040787;28;20094;-84
2022/04/19 00:30:37;;;;;;;13.15;11.88;;;;;;;;;;5041766;28;20503;-84
2022/04/19 00:33:03;;;;;;;12.77;11.55;;;;;;;;;;5044848;28;20060;-83
2022/04/19 00:35:29;;;;;;;12.73;11.55;;;;;;;;;;5052936;28;20072;-83
2022/04/19 00:37:55;;;;;;;12.35;11.15;;;;;;;;;;5035947;28;20098;-83
2022/04/19 00:40:21;;;;;;;12.82;11.63;;;;;;;;;;5040659;28;20049;-83
2022/04/19 00:42:49;;;;;;;12.50;11.30;;;;;;;;;;5039202;28;20050;-84
2022/04/19 00:45:15;;;;;;;12.82;11.57;;;;;;;;;;5042503;28;20080;-83
2022/04/19 00:47:41;;;;;;;12.15;10.98;;;;;;;;;;5040307;28;20427;-83
2022/04/19 00:50:08;;;;;;;12.48;11.32;;;;;;;;;;5042141;28;20037;-84
2022/04/19 00:52:37;;;;;;;12.73;11.52;;;;;;;;;;5046925;28;20056;-84
2022/04/19 00:55:07;;;;;;;12.05;10.82;;;;;;;;;;5054773;28;20132;-84
2022/04/19 00:57:35;;;;;;;12.23;11.02;;;;;;;;;;5041599;28;20045;-84
2022/04/19 01:00:01;;;;;;;11.68;10.57;;;;;;;;;;5048896;28;20403;-84
2022/04/19 01:02:27;;;;;;;12.38;11.18;;;;;;;;;;5049183;28;20497;-85
2022/04/19 01:04:55;;;;;;;12.20;10.90;;;;;;;;;;5046592;28;20048;-84
2022/04/19 01:07:22;;;;;;;12.90;11.52;;;;;;;;;;5046532;28;20484;-84
2022/04/19 01:09:51;;;;;;;12.68;11.38;;;;;;;;;;5048102;28;20049;-83
2022/04/19 01:15:05;;;;;;;12.20;11.00;;;;;;;;;;5044800;28;20033;-84
2022/04/19 01:17:33;;;;;;;11.75;10.65;;;;;;;;;;5044667;28;20488;-83
2022/04/19 01:20:00;;;;;;;12.00;10.80;;;;;;;;;;5045326;28;20531;-83
2022/04/19 01:22:26;;;;;;;11.65;10.55;;;;;;;;;;5044167;28;20102;-84
2022/04/19 01:24:52;;;;;;;11.20;10.10;;;;;;;;;;5043887;28;20047;-84
2022/04/19 01:27:18;;;;;;;11.02;9.93;;;;;;;;;;5046281;28;20040;-84
2022/04/19 01:29:45;;;;;;;10.70;9.70;;;;;;;;;;5045395;28;20492;-84
2022/04/19 01:32:13;;;;;;;10.98;9.75;;;;;;;;;;5048034;28;20120;-83
2022/04/19 01:34:39;;;;;;;12.07;10.20;;;;;;;;;;5039469;28;20072;-84
2022/04/19 01:37:05;;;;;;;11.00;10.00;;;;;;;;;;5039962;28;20038;-84
2022/04/19 01:42:16;;;;;;;11.07;9.82;;;;;;;;;;5046700;28;20041;-85
2022/04/19 01:44:42;;;;;;;10.80;9.77;;;;;;;;;;5057939;28;20408;-84
2022/04/19 01:47:08;;;;;;;11.02;9.85;;;;;;;;;;5044401;28;20037;-83
2022/04/19 01:49:37;;;;;;;11.05;9.95;;;;;;;;;;5046218;28;20123;-83
2022/04/19 01:52:04;;;;;;;10.82;9.82;;;;;;;;;;5045965;28;20045;-83
2022/04/19 01:54:30;;;;;;;10.45;9.32;;;;;;;;;;5048747;28;20061;-85
2022/04/19 01:56:57;;;;;;;10.70;9.63;;;;;;;;;;5047539;28;20498;-84
2022/04/19 01:59:23;;;;;;;10.88;9.82;;;;;;;;;;5045071;28;20123;-83
2022/04/19 02:01:49;;;;;;;11.13;9.93;;;;;;;;;;5041609;28;20044;-84
2022/04/19 02:04:15;;;;;;;12.82;10.23;;;;;;;;;;5041891;28;20615;-84
2022/04/19 02:06:41;;;;;;;10.43;9.43;;;;;;;;;;5045319;28;20045;-84
2022/04/19 02:09:07;;;;;;;10.40;9.40;;;;;;;;;;5042321;28;20065;-84
2022/04/19 02:11:33;;;;;;;10.30;9.27;;;;;;;;;;5043295;28;20041;-84
2022/04/19 02:13:59;;;;;;;10.15;9.15;;;;;;;;;;5046144;28;20066;-84
2022/04/19 02:16:26;;;;;;;9.90;8.90;;;;;;;;;;5045945;28;20135;-84
2022/04/19 02:18:52;;;;;;;10.63;9.52;;;;;;;;;;5059839;28;20103;-85
2022/04/19 02:21:18;;;;;;;10.65;9.65;;;;;;;;;;5050912;28;20085;-83
2022/04/19 02:23:44;;;;;;;12.55;9.82;;;;;;;;;;5048496;28;20072;-84
2022/04/19 02:26:10;;;;;;;10.40;9.38;;;;;;;;;;5043469;28;20047;-84
2022/04/19 02:28:37;;;;;;;10.90;9.80;;;;;;;;;;5044578;28;20484;-83
2022/04/19 02:31:03;;;;;;;11.50;10.38;;;;;;;;;;5047377;28;20045;-84
2022/04/19 02:33:29;;;;;;;12.98;10.90;;;;;;;;;;5047281;28;20067;-84
2022/04/19 02:35:55;;;;;;;13.38;11.32;;;;;;;;;;5045935;28;20407;-84
2022/04/19 02:38:22;;;;;;;14.20;11.55;;;;;;;;;;5043339;28;20037;-83
2022/04/19 02:40:48;;;;;;;14.63;11.57;;;;;;;;;;5042068;28;21801;-84
2022/04/19 02:43:14;;;;;;;15.27;11.93;;;;;;;;;;5039805;28;20124;-84
2022/04/19 02:45:41;;;;;;;16.90;12.77;;;;;;;;;;5040024;28;20123;-84
2022/04/19 02:48:08;;;;;;;19.25;13.32;;;;;;;;;;5041239;28;20496;-84
2022/04/19 02:50:40;;;;;;;17.42;13.57;;;;;;;;;;5045757;28;20092;-84
2022/04/19 02:53:06;;;;;;;16.48;13.73;;;;;;;;;;5042115;28;20521;-84
2022/04/19 02:55:32;;;;;;;18.48;13.75;;;;;;;;;;5042105;28;20413;-84
2022/04/19 02:57:58;;;;;;;19.77;14.30;;;;;;;;;;5044662;28;20040;-84
2022/04/19 03:00:24;;;;;;;18.42;13.82;;;;;;;;;;5039774;28;20068;-84
2022/04/19 03:02:51;;;;;;;18.45;13.75;;;;;;;;;;5040917;28;20041;-84
2022/04/19 03:05:20;;;;;;;18.75;13.60;;;;;;;;;;5045486;28;20049;-84
2022/04/19 03:07:47;;;;;;;17.75;13.48;;;;;;;;;;5043670;28;20033;-84
2022/04/19 03:10:16;;;;;;;18.17;13.68;;;;;;;;;;5041033;28;20424;-83
2022/04/19 03:12:45;;;;;;;18.95;14.05;;;;;;;;;;5041102;28;20128;-84
2022/04/19 03:15:12;;;;;;;19.05;14.15;;;;;;;;;;5039129;28;20045;-84
2022/04/19 03:17:38;;;;;;;18.40;13.77;;;;;;;;;;5045501;28;20087;-83
2022/04/19 03:20:08;;;;;;;15.65;13.63;;;;;;;;;;5047331;28;20044;-84
2022/04/19 03:28:05;;;;;;;18.52;13.25;;;;;;;;;;5038073;28;20057;-84
2022/04/19 03:30:31;;;;;;;14.95;12.18;;;;;;;;;;5046673;28;20043;-83
2022/04/19 03:32:57;;;;;;;14.00;12.18;;;;;;;;;;5044648;28;20040;-84
2022/04/19 03:35:23;;;;;;;14.05;11.25;;;;;;;;;;5040396;28;20068;-84
2022/04/19 03:37:49;;;;;;;15.07;12.02;;;;;;;;;;5043346;28;20944;-84
2022/04/19 03:40:15;;;;;;;13.27;11.63;;;;;;;;;;5042043;28;20059;-84
2022/04/19 03:42:42;;;;;;;16.23;12.57;;;;;;;;;;5043505;28;20041;-84
2022/04/19 03:45:09;;;;;;;12.70;10.98;;;;;;;;;;5041645;28;20421;-83
2022/04/19 03:47:35;;;;;;;13.23;11.63;;;;;;;;;;5047027;28;20103;-84
2022/04/19 03:50:01;;;;;;;14.00;11.70;;;;;;;;;;5041365;28;20439;-84
2022/04/19 03:52:27;;;;;;;12.73;10.98;;;;;;;;;;5044272;28;20232;-84
2022/04/19 03:54:53;;;;;;;15.73;12.32;;;;;;;;;;5041482;28;20041;-85
2022/04/19 03:57:19;;;;;;;15.45;12.15;;;;;;;;;;5041574;28;20384;-84
2022/04/19 03:59:45;;;;;;;14.25;11.73;;;;;;;;;;5044511;28;20052;-84
2022/04/19 04:02:11;;;;;;;12.52;11.23;;;;;;;;;;5041306;28;20087;-84
2022/04/19 04:04:38;;;;;;;13.63;11.82;;;;;;;;;;5036899;28;20057;-84
2022/04/19 04:07:05;;;;;;;14.77;10.73;;;;;;;;;;5045436;28;20099;-85
2022/04/19 04:09:32;;;;;;;14.60;11.10;;;;;;;;;;5044218;28;20063;-84
2022/04/19 04:12:05;;;;;;;13.18;11.48;;;;;;;;;;5043651;28;20049;-84
2022/04/19 04:14:31;;;;;;;14.48;11.70;;;;;;;;;;5042348;28;20040;-84
2022/04/19 04:16:57;;;;;;;13.80;10.90;;;;;;;;;;5036713;28;20568;-84
2022/04/19 04:19:23;;;;;;;14.65;13.15;;;;;;;;;;5041685;28;20045;-84
2022/04/19 04:21:49;;;;;;;12.07;10.85;;;;;;;;;;5044337;28;20051;-84
2022/04/19 04:24:15;;;;;;;12.15;10.90;;;;;;;;;;5042718;28;20059;-84
2022/04/19 04:26:41;;;;;;;11.32;10.13;;;;;;;;;;5043814;28;20051;-84
2022/04/19 04:29:10;;;;;;;11.50;10.30;;;;;;;;;;5042691;28;20041;-83
2022/04/19 04:31:36;;;;;;;10.68;9.57;;;;;;;;;;5043433;28;20044;-84
2022/04/19 04:34:02;;;;;;;11.02;9.52;;;;;;;;;;5045194;28;20045;-83
2022/04/19 04:36:28;;;;;;;10.30;9.30;;;;;;;;;;5045988;28;20041;-84
2022/04/19 04:38:54;;;;;;;10.38;9.27;;;;;;;;;;5043340;28;20396;-84
2022/04/19 04:41:20;;;;;;;10.25;9.25;;;;;;;;;;5042294;28;20045;-84
2022/04/19 04:43:46;;;;;;;9.90;8.90;;;;;;;;;;5043274;28;20060;-84
2022/04/19 04:51:41;;;;;;;12.25;9.15;;;;;;;;;;5047567;28;20049;-84
2022/04/19 04:54:07;;;;;;;10.00;8.90;;;;;;;;;;5044694;28;20084;-84
2022/04/19 04:56:33;;;;;;;10.27;9.18;;;;;;;;;;5046678;28;20040;-84
2022/04/19 04:58:59;;;;;;;10.75;9.35;;;;;;;;;;5047590;28;20187;-84
2022/04/19 05:01:28;;;;;;;9.98;8.95;;;;;;;;;;5045775;28;20175;-84
2022/04/19 05:03:54;;;;;;;10.93;8.80;;;;;;;;;;5047096;28;20037;-84
2022/04/19 05:06:20;;;;;;;11.48;10.30;;;;;;;;;;5046745;28;20507;-84
2022/04/19 05:08:46;;;;;;;11.75;10.15;;;;;;;;;;5056793;28;20068;-83
2022/04/19 05:11:12;;;;;;;10.20;9.20;;;;;;;;;;5043905;28;20468;-82
2022/04/19 05:13:38;;;;;;;10.52;9.45;;;;;;;;;;5050637;28;20044;-84
2022/04/19 05:16:04;;;;;;;10.02;9.02;;;;;;;;;;5045624;28;20044;-83
2022/04/19 05:18:31;;;;;;;9.70;8.70;;;;;;;;;;5047893;28;20385;-83
2022/04/19 05:20:57;;;;;;;10.32;9.07;;;;;;;;;;5049969;28;20045;-84
2022/04/19 05:23:23;;;;;;;12.00;9.27;;;;;;;;;;5053865;28;20494;-83
2022/04/19 05:25:49;;;;;;;10.20;9.20;;;;;;;;;;5050324;28;20075;-83
2022/04/19 05:28:15;;;;;;;10.15;9.15;;;;;;;;;;5049620;28;20044;-83
2022/04/19 05:30:41;;;;;;;11.57;9.63;;;;;;;;;;5049902;28;20041;-82
2022/04/19 05:33:08;;;;;;;10.05;9.05;;;;;;;;;;5054657;28;20056;-84
2022/04/19 05:35:34;;;;;;;10.15;9.15;;;;;;;;;;5047194;28;20045;-83
2022/04/19 05:38:02;;;;;;;13.07;9.90;;;;;;;;;;5041935;28;20132;-84
2022/04/19 05:40:28;;;;;;;11.73;9.77;;;;;;;;;;5044025;28;20132;-85
2022/04/19 05:42:54;;;;;;;10.43;9.32;;;;;;;;;;5046060;28;20500;-86
2022/04/19 05:45:23;;;;;;;11.10;8.98;;;;;;;;;;5040791;28;20130;-85
2022/04/19 05:47:49;;;;;;;10.90;8.85;;;;;;;;;;5045635;28;20115;-84
2022/04/19 05:50:15;;;;;;;10.60;9.50;;;;;;;;;;5043368;28;20112;-84
2022/04/19 05:52:41;;;;;;;10.38;9.00;;;;;;;;;;5044068;28;20052;-84
2022/04/19 05:55:08;;;;;;;11.35;10.20;;;;;;;;;;5043869;28;20432;-84
2022/04/19 05:57:34;;;;;;;11.40;9.80;;;;;;;;;;5047444;28;20048;-84
2022/04/19 06:00:00;;;;;;;11.32;9.73;;;;;;;;;;5047037;28;20125;-84
2022/04/19 06:05:10;;;;;;;11.18;9.50;;;;;;;;;;5043776;28;20393;-84
2022/04/19 06:07:43;;;;;;;10.40;9.25;;;;;;;;;;5048935;28;20045;-84
2022/04/19 06:10:12;;;;;;;12.10;10.20;;;;;;;;;;5043327;28;20067;-84
2022/04/19 06:12:38;;;;;;;11.15;9.52;;;;;;;;;;5045940;28;20330;-85
2022/04/19 06:15:05;;;;;;;10.77;9.68;;;;;;;;;;5048372;28;20041;-83
2022/04/19 06:17:32;;;;;;;10.20;9.10;;;;;;;;;;5047246;28;20102;-83
2022/04/19 06:20:02;;;;;;;10.82;9.73;;;;;;;;;;5046060;28;20060;-83
2022/04/19 06:22:28;;;;;;;12.93;10.25;;;;;;;;;;5046278;28;20507;-84
2022/04/19 06:24:57;;;;;;;10.70;9.02;;;;;;;;;;5047880;28;20537;-84
2022/04/19 06:27:24;;;;;;;10.77;9.68;;;;;;;;;;5041515;28;20037;-83
2022/04/19 06:29:56;;;;;;;11.57;9.75;;;;;;;;;;5040855;28;20049;-85
2022/04/19 06:32:22;;;;;;;10.48;9.43;;;;;;;;;;5045774;28;20041;-83
2022/04/19 06:34:48;;;;;;;10.95;9.77;;;;;;;;;;5040549;28;20095;-84
2022/04/19 06:37:15;;;;;;;10.45;9.27;;;;;;;;;;5038104;28;20049;-83
2022/04/19 06:39:41;;;;;;;10.52;9.43;;;;;;;;;;5049581;28;20124;-84
2022/04/19 06:42:07;;;;;;;9.90;8.80;;;;;;;;;;5046149;28;20427;-84
2022/04/19 06:44:36;;;;;;;13.15;9.73;;;;;;;;;;5046597;28;20044;-84
2022/04/19 06:47:02;;;;;;;11.90;9.85;;;;;;;;;;5048036;28;20480;-84
2022/04/19 06:49:28;;;;;;;12.35;10.10;;;;;;;;;;5042236;28;20044;-84
2022/04/19 06:51:54;;;;;;;14.02;10.27;;;;;;;;;;5044973;28;20083;-84
2022/04/19 06:54:20;;;;;;;10.98;9.82;;;;;;;;;;5041725;28;20118;-84
2022/04/19 06:56:47;;;;;;;10.40;9.20;;;;;;;;;;5044134;28;20465;-84
2022/04/19 06:59:13;;;;;;;10.60;9.50;;;;;;;;;;5040080;28;20063;-83
2022/04/19 07:01:40;;;;;;;10.70;9.52;;;;;;;;;;5048356;28;20037;-81
2022/04/19 07:04:10;;;;;;;11.07;9.80;;;;;;;;;;5046180;28;20052;-83
2022/04/19 07:06:36;;;;;;;12.45;9.77;;;;;;;;;;5035018;28;20045;-82
2022/04/19 07:09:03;;;;;;;14.13;9.80;;;;;;;;;;5042678;28;20049;-82
2022/04/19 07:11:29;;;;;;;10.63;9.40;;;;;;;;;;5043248;28;20057;-81
2022/04/19 07:13:56;;;;;;;10.55;8.95;;;;;;;;;;5035806;28;20055;-82
2022/04/19 07:16:22;;;;;;;9.95;8.95;;;;;;;;;;5043549;28;20196;-82
2022/04/19 07:18:48;;;;;;;9.77;8.77;;;;;;;;;;5045046;28;20490;-83
2022/04/19 07:26:47;;;;;;;10.77;9.68;;;;;;;;;;5057467;28;20049;-82
2022/04/19 07:29:20;;;;;;;10.07;8.98;;;;;;;;;;5046336;28;20063;-82
2022/04/19 07:31:47;;;;;;;10.32;9.05;;;;;;;;;;5042736;28;20595;-82
2022/04/19 07:34:14;;;;;;;10.93;9.82;;;;;;;;;;5047639;28;20044;-82
2022/04/19 07:36:41;;;;;;;11.30;9.55;;;;;;;;;;5046587;28;20060;-83
2022/04/19 07:39:11;;;;;;;12.23;9.57;;;;;;;;;;5044238;28;20045;-83
2022/04/19 07:41:37;;;;;;;10.73;9.25;;;;;;;;;;5046227;28;20053;-82
2022/04/19 07:44:04;;;;;;;10.60;9.50;;;;;;;;;;5046255;28;20045;-83
2022/04/19 07:46:30;;;;;;;11.25;10.05;;;;;;;;;;5034207;28;20060;-83
2022/04/19 07:48:57;;;;;;;10.95;9.75;;;;;;;;;;5048443;28;20379;-84
2022/04/19 07:51:24;;;;;;;10.68;9.57;;;;;;;;;;5047464;28;20049;-83
2022/04/19 07:53:50;;;;;;;10.85;9.75;;;;;;;;;;5047078;28;20072;-83
2022/04/19 07:56:16;;;;;;;10.93;9.38;;;;;;;;;;5046707;28;20040;-83
2022/04/19 07:58:49;;;;;;;10.63;9.52;;;;;;;;;;5044136;28;20107;-83
2022/04/19 08:01:16;;;;;;;11.95;9.95;;;;;;;;;;5041291;28;20041;-82
2022/04/19 08:03:42;;;;;;;10.10;9.02;;;;;;;;;;5045489;28;20045;-82
2022/04/19 08:06:08;;;;;;;10.95;9.50;;;;;;;;;;5045336;28;20127;-83
2022/04/19 08:08:34;;;;;;;9.57;8.43;;;;;;;;;;5053493;28;20041;-83
2022/04/19 08:11:04;;;;;;;10.38;8.63;;;;;;;;;;5048238;28;20041;-82
2022/04/19 08:13:30;;;;;;;10.13;8.48;;;;;;;;;;5044840;28;20128;-83
2022/04/19 08:15:57;;;;;;;10.25;8.88;;;;;;;;;;5046602;28;20414;-83
2022/04/19 08:18:23;;;;;;;10.10;9.10;;;;;;;;;;5038575;28;20049;-83
2022/04/19 08:20:51;;;;;;;9.80;8.35;;;;;;;;;;5041118;28;20411;-84
2022/04/19 08:23:17;;;;;;;10.10;8.13;;;;;;;;;;5044204;28;20492;-83
2022/04/19 08:25:43;;;;;;;9.15;7.90;;;;;;;;;;5041393;28;20041;-82
2022/04/19 08:28:09;;;;;;;10.68;8.38;;;;;;;;;;5040996;28;20041;-83
2022/04/19 08:30:35;;;;;;;9.52;7.25;;;;;;;;;;5035381;28;20499;-82
2022/04/19 08:33:01;;;;;;;9.35;7.43;;;;;;;;;;5038104;28;20048;-82
2022/04/19 08:35:28;;;;;;;10.10;7.25;;;;;;;;;;5046802;28;20049;-82
2022/04/19 08:37:54;;;;;;;10.07;8.05;;;;;;;;;;5047365;28;20408;-82
2022/04/19 08:40:20;;;;;;;11.27;8.38;;;;;;;;;;5037987;28;20041;-83
2022/04/19 08:42:46;;;;;;;9.48;7.82;;;;;;;;;;5041531;28;20071;-83
2022/04/19 08:45:14;;;;;;;9.27;7.80;;;;;;;;;;5044161;28;20044;-82
2022/04/19 08:47:42;;;;;;;10.05;8.18;;;;;;;;;;5045317;28;20503;-83
2022/04/19 08:50:11;;;;;;;9.20;8.10;;;;;;;;;;5042727;28;20123;-82
2022/04/19 08:52:38;;;;;;;9.95;8.52;;;;;;;;;;5048232;28;20454;-83
2022/04/19 08:57:50;;;;;;;10.68;8.80;;;;;;;;;;5041565;28;20049;-83
2022/04/19 09:00:17;;;;;;;9.35;8.05;;;;;;;;;;5042838;28;20514;-83
2022/04/19 09:02:43;;;;;;;10.82;9.30;;;;;;;;;;5041534;28;20056;-83
2022/04/19 09:05:22;;;;;;;10.07;8.05;;;;;;;;;;5038525;28;20381;-84
2022/04/19 09:07:49;;;;;;;10.30;9.07;;;;;;;;;;5044081;28;20056;-84
2022/04/19 09:10:28;;;;;;;9.50;8.05;;;;;;;;;;5039274;28;20107;-85
2022/04/19 09:13:15;;;;;;;10.48;8.43;;;;;;;;;;5044559;28;20048;-83
2022/04/19 09:15:42;;;;;;;9.00;7.38;;;;;;;;;;5035353;28;20083;-84
2022/04/19 09:18:24;;;;;;;8.82;7.60;;;;;;;;;;5052090;28;20068;-83
2022/04/19 09:20:51;;;;;;;10.40;7.70;;;;;;;;;;5044272;28;20079;-82
2022/04/19 09:23:17;;;;;;;9.68;7.68;;;;;;;;;;5043082;28;20049;-83
2022/04/19 09:25:44;;;;;;;11.05;7.47;;;;;;;;;;5045687;28;20092;-82
2022/04/19 09:28:17;;;;;;;8.50;7.40;;;;;;;;;;5043209;28;20033;-83
2022/04/19 09:30:44;;;;;;;8.27;7.30;;;;;;;;;;5045936;28;20045;-82
2022/04/19 09:33:14;;;;;;;10.35;6.95;;;;;;;;;;5047539;28;20045;-82
2022/04/19 09:36:03;;;;;;;8.82;6.70;;;;;;;;;;5041737;28;20056;-81
2022/04/19 09:38:38;;;;;;;8.35;6.47;;;;;;;;;;5050234;28;20125;-82
2022/04/19 09:41:05;;;;;;;8.50;6.45;;;;;;;;;;5049654;28;20087;-83
2022/04/19 09:43:33;;;;;;;6.82;5.80;;;;;;;;;;5044181;28;20759;-83
2022/04/19 09:46:02;;;;;;;8.85;6.50;;;;;;;;;;5042191;28;20045;-83
2022/04/19 09:48:35;;;;;;;7.55;6.10;;;;;;;;;;5044807;28;20056;-83
2022/04/19 09:51:05;;;;;;;6.85;5.20;;;;;;;;;;5040667;28;20086;-83
2022/04/19 09:53:43;;;;;;;6.50;5.20;;;;;;;;;;5044583;28;20049;-82
2022/04/19 09:56:16;;;;;;;5.93;4.63;;;;;;;;;;5034593;22;20417;-82
2022/04/19 09:58:44;;;;;;;7.40;5.22;;;;;;;;;;5008435;28;20045;-82
2022/04/19 10:08:10;;;;;;;6.95;5.10;;;;;;;;;;5006178;28;20099;-82
2022/04/19 10:09:31;;;;;;;6.57;5.15;;;;;;;;;;5022877;28;20381;-82
2022/04/19 10:11:57;;;;;;;6.38;5.00;;;;;;;;;;5024105;28;20041;-82
2022/04/19 10:14:23;;;;;;;5.97;5.15;;;;;;;;;;5009843;28;20065;-83
2022/04/19 10:16:50;;;;;;;6.78;4.93;;;;;;;;;;5021480;28;20381;-84
2022/04/19 10:19:16;;;;;;;7.13;5.40;;;;;;;;;;5015237;28;20045;-82
2022/04/19 10:21:44;;;;;;;6.00;5.40;;;;;;;;;;5024138;28;20053;-82
2022/04/19 10:24:16;;;;;;;6.90;5.20;;;;;;;;;;5014810;28;20099;-82
2022/04/19 10:26:51;;;;;;;7.35;5.75;;;;;;;;;;5023673;28;20064;-82
2022/04/19 10:29:28;;;;;;;6.03;5.00;;;;;;;;;;5018943;28;20413;-81
2022/04/19 10:31:54;;;;;;;8.20;6.00;;;;;;;;;;5009330;28;20504;-81
2022/04/19 10:34:25;;;;;;;6.93;5.25;;;;;;;;;;5008305;28;20045;-82
2022/04/19 10:36:54;;;;;;;7.05;4.75;;;;;;;;;;5021503;28;20041;-81
2022/04/19 10:39:22;;;;;;;5.93;4.40;;;;;;;;;;5028795;28;20045;-82
2022/04/19 10:41:49;;;;;;;4.45;4.03;;;;;;;;;;5010720;28;20497;-82
2022/04/19 10:44:25;;;;;;;5.28;4.18;;;;;;;;;;5006638;28;20073;-81
2022/04/19 10:47:14;;;;;;;4.20;3.70;;;;;;;;;;5005488;28;20049;-81
2022/04/19 10:49:55;;;;;;;3.85;3.35;;;;;;;;;;5025604;28;20037;-82
2022/04/19 10:52:36;;;;;;;4.72;3.03;;;;;;;;;;5025935;28;20041;-81
2022/04/19 10:55:07;;;;;;;5.63;3.05;;;;;;;;;;5024781;28;20056;-81
2022/04/19 11:00:30;;;;;;;4.07;3.20;;;;;;;;;;5021768;28;20472;-82
2022/04/19 11:03:00;;;;;;;3.45;2.95;;;;;;;;;;5024709;28;20133;-81
2022/04/19 11:05:41;;;;;;;2.95;2.40;;;;;;;;;;5023463;28;20121;-81
2022/04/19 11:08:25;;;;;;;2.90;2.60;;;;;;;;;;5007780;28;20042;-81
2022/04/19 11:11:06;;;;;;;3.35;2.80;;;;;;;;;;5004951;28;20098;-82
2022/04/19 11:13:35;;;;;;;4.85;3.00;;;;;;;;;;5001385;28;20049;-82
2022/04/19 11:16:07;;;;;;;3.30;2.58;;;;;;;;;;5004399;28;20046;-82
2022/04/19 11:18:33;;;;;;;3.50;2.55;;;;;;;;;;5010772;28;20053;-81
2022/04/19 11:21:01;;;;;;;2.83;2.60;;;;;;;;;;5023019;28;20126;-81
2022/04/19 11:23:29;;;;;;;2.60;2.40;;;;;;;;;;5020337;28;20612;-81
2022/04/19 11:25:55;;;;;;;2.03;1.83;;;;;;;;;;5005668;28;20061;-80
2022/04/19 11:28:22;;;;;;;2.00;1.90;;;;;;;;;;5022826;28;20037;-81
2022/04/19 11:30:57;;;;;;;2.30;2.10;;;;;;;;;;5008859;28;20381;-81
2022/04/19 11:33:24;;;;;;;3.15;1.70;;;;;;;;;;5010377;28;20041;-81
2022/04/19 11:36:02;;;;;;;1.80;1.70;;;;;;;;;;5009267;28;20511;-80
2022/04/19 11:38:32;;;;;;;1.98;1.70;;;;;;;;;;5000686;28;20050;-80
2022/04/19 11:46:46;;;;;;;2.60;2.00;;;;;;;;;;5008088;28;20119;-80
2022/04/19 11:49:21;;;;;;;1.98;1.88;;;;;;;;;;5020843;28;20053;-81
2022/04/19 11:51:49;;;;;;;2.13;2.00;;;;;;;;;;5004157;28;20463;-80
2022/04/19 11:54:19;;;;;;;2.30;2.10;;;;;;;;;;5025961;28;20064;-81
2022/04/19 11:56:45;;;;;;;2.15;1.95;;;;;;;;;;5001200;28;20195;-82
2022/04/19 11:59:11;;;;;;;2.50;1.83;;;;;;;;;;5005415;28;20461;-82
2022/04/19 12:01:38;;;;;;;2.05;1.95;;;;;;;;;;5019949;28;20077;-83
2022/04/19 12:04:11;;;;;;;1.90;1.80;;;;;;;;;;5021961;28;20079;-85
2022/04/19 12:06:37;;;;;;;2.45;1.80;;;;;;;;;;5022008;28;20094;-81
2022/04/19 12:09:03;;;;;;;1.80;1.70;;;;;;;;;;4999292;28;20132;-81
2022/04/19 12:11:29;;;;;;;2.92;2.33;;;;;;;;;;5004053;28;20050;-81
2022/04/19 12:13:56;;;;;;;2.28;2.08;;;;;;;;;;5004359;28;20136;-80
2022/04/19 12:16:36;;;;;;;2.20;1.90;;;;;;;;;;5008461;28;20087;-81
2022/04/19 12:19:03;;;;;;;2.47;2.20;;;;;;;;;;5005373;28;20124;-81
2022/04/19 12:21:35;;;;;;;3.47;2.13;;;;;;;;;;5007815;28;20054;-81
2022/04/19 12:24:01;;;;;;;1.83;1.73;;;;;;;;;;4996011;28;20538;-81
2022/04/19 12:26:27;;;;;;;2.00;1.90;;;;;;;;;;5008795;28;20124;-81
2022/04/19 12:28:53;;;;;;;3.05;2.00;;;;;;;;;;5023523;28;20128;-81
2022/04/19 12:31:37;;;;;;;2.20;2.05;;;;;;;;;;5026811;28;20531;-81
2022/04/19 12:34:04;;;;;;;3.47;1.85;;;;;;;;;;5012357;28;20507;-81
2022/04/19 12:36:40;;;;;;;2.00;1.90;;;;;;;;;;5025971;28;20529;-81
2022/04/19 12:39:09;;;;;;;2.40;2.20;;;;;;;;;;5007993;28;20053;-81
2022/04/19 12:41:36;;;;;;;3.80;2.08;;;;;;;;;;5009674;28;20095;-81
2022/04/19 12:44:02;;;;;;;3.28;2.40;;;;;;;;;;5023692;28;20094;-81
2022/04/19 12:46:28;;;;;;;2.30;2.10;;;;;;;;;;5010232;28;20049;-81
2022/04/19 12:48:54;;;;;;;2.47;2.28;;;;;;;;;;5014512;28;20045;-80
2022/04/19 12:51:24;;;;;;;2.88;2.35;;;;;;;;;;5011710;28;20590;-80
2022/04/19 12:54:03;;;;;;;3.95;2.25;;;;;;;;;;5016633;28;20041;-82
2022/04/19 12:56:29;;;;;;;2.25;2.15;;;;;;;;;;5030758;28;20064;-82
2022/04/19 12:58:55;;;;;;;2.30;2.10;;;;;;;;;;5031071;28;20045;-83
2022/04/19 13:01:21;;;;;;;2.10;1.90;;;;;;;;;;5030178;28;20464;-82
2022/04/19 13:03:47;;;;;;;2.20;2.00;;;;;;;;;;5011947;28;20133;-82
2022/04/19 13:14:28;;;;;;;2.38;2.17;;;;;;;;;;5013578;28;20049;-82
2022/04/19 13:16:54;;;;;;;2.30;2.13;;;;;;;;;;5012520;28;20037;-82
2022/04/19 13:19:20;;;;;;;2.80;2.00;;;;;;;;;;5029085;28;20052;-82
2022/04/19 13:21:46;;;;;;;2.40;1.90;;;;;;;;;;5015602;28;20077;-81
2022/04/19 13:24:12;;;;;;;2.10;2.00;;;;;;;;;;5013621;28;20132;-82
2022/04/19 13:26:39;;;;;;;2.20;2.10;;;;;;;;;;5006085;28;20045;-82
2022/04/19 13:29:06;;;;;;;2.53;2.30;;;;;;;;;;5011464;28;20045;-81
2022/04/19 13:31:32;;;;;;;2.70;2.50;;;;;;;;;;5013022;28;20107;-81
2022/04/19 13:33:58;;;;;;;2.60;2.40;;;;;;;;;;5032172;28;20422;-81
2022/04/19 13:36:27;;;;;;;2.60;2.40;;;;;;;;;;5029410;28;20037;-81
2022/04/19 13:38:53;;;;;;;2.60;2.40;;;;;;;;;;5012818;28;20423;-81
2022/04/19 13:41:19;;;;;;;2.90;2.30;;;;;;;;;;5008382;28;20041;-81
2022/04/19 13:43:45;;;;;;;2.75;2.55;;;;;;;;;;5012678;28;20053;-79
2022/04/19 13:46:11;;;;;;;4.13;2.63;;;;;;;;;;5026871;28;20148;-82
2022/04/19 13:48:37;;;;;;;3.15;2.88;;;;;;;;;;5029611;28;20395;-81
2022/04/19 13:51:04;;;;;;;2.90;2.60;;;;;;;;;;5015345;28;20556;-81
2022/04/19 13:53:31;;;;;;;2.50;2.30;;;;;;;;;;5011096;28;20147;-81
2022/04/19 13:55:58;;;;;;;3.08;2.72;;;;;;;;;;5029057;28;20564;-82
2022/04/19 13:58:24;;;;;;;3.58;2.45;;;;;;;;;;5011409;28;20080;-81
2022/04/19 14:00:50;;;;;;;2.85;2.65;;;;;;;;;;5028190;28;20456;-82
2022/04/19 14:03:16;;;;;;;2.50;2.30;;;;;;;;;;5012700;28;20050;-82
2022/04/19 14:05:42;;;;;;;3.03;2.75;;;;;;;;;;5029402;28;20057;-81
2022/04/19 14:08:08;;;;;;;3.08;2.80;;;;;;;;;;5009832;28;20045;-81
2022/04/19 14:10:34;;;;;;;4.18;2.80;;;;;;;;;;5029291;28;20561;-81
2022/04/19 14:13:00;;;;;;;2.90;2.70;;;;;;;;;;5014125;28;20060;-81
2022/04/19 14:15:27;;;;;;;2.80;2.50;;;;;;;;;;5001350;28;20068;-82
2022/04/19 14:17:53;;;;;;;4.32;2.50;;;;;;;;;;5002447;28;20093;-82
2022/04/19 14:20:19;;;;;;;2.90;2.70;;;;;;;;;;5018737;28;20061;-81
2022/04/19 14:22:45;;;;;;;3.50;2.50;;;;;;;;;;5001075;28;20053;-81
2022/04/19 14:25:11;;;;;;;2.90;2.60;;;;;;;;;;5001872;28;20400;-81
2022/04/19 14:27:37;;;;;;;3.05;2.25;;;;;;;;;;5011504;28;20045;-81
2022/04/19 14:35:32;;;;;;;4.22;3.10;;;;;;;;;;5004560;28;20065;-81
2022/04/19 14:37:58;;;;;;;3.50;3.20;;;;;;;;;;5025030;28;20461;-82
2022/04/19 14:40:24;;;;;;;5.22;3.28;;;;;;;;;;5027041;28;20045;-81
2022/04/19 14:42:50;;;;;;;5.95;3.50;;;;;;;;;;5005595;28;20441;-82
2022/04/19 14:45:16;;;;;;;4.82;3.40;;;;;;;;;;5026523;28;20046;-81
2022/04/19 14:47:42;;;;;;;5.68;3.20;;;;;;;;;;5010521;28;20052;-81
2022/04/19 14:50:09;;;;;;;3.75;3.20;;;;;;;;;;5018395;28;20045;-81
2022/04/19 14:52:35;;;;;;;6.28;3.35;;;;;;;;;;5027048;28;20045;-82
2022/04/19 14:55:01;;;;;;;5.30;3.60;;;;;;;;;;5005430;28;20578;-82
2022/04/19 14:57:27;;;;;;;6.85;3.40;;;;;;;;;;5008984;28;20701;-82
2022/04/19 14:59:53;;;;;;;3.72;3.42;;;;;;;;;;5000231;28;20144;-82
2022/04/19 15:02:21;;;;;;;7.75;3.25;;;;;;;;;;5010846;28;20184;-81
2022/04/19 15:04:47;;;;;;;5.18;3.28;;;;;;;;;;5010986;28;20045;-82
2022/04/19 15:07:13;;;;;;;4.47;3.70;;;;;;;;;;5021752;28;20788;-81
2022/04/19 15:09:39;;;;;;;6.70;3.60;;;;;;;;;;5007691;28;21667;-81
2022/04/19 15:12:08;;;;;;;4.95;4.05;;;;;;;;;;5027729;28;20405;-81
2022/04/19 15:14:35;;;;;;;5.82;3.88;;;;;;;;;;5022847;28;20048;-81
2022/04/19 15:17:01;;;;;;;4.40;3.70;;;;;;;;;;5027495;28;20056;-81
2022/04/19 15:19:27;;;;;;;9.82;3.63;;;;;;;;;;5017732;28;20128;-81
2022/04/19 15:21:54;;;;;;;3.75;3.40;;;;;;;;;;5009136;28;20052;-80
2022/04/19 15:24:22;;;;;;;3.65;3.28;;;;;;;;;;5028675;28;20052;-81
2022/04/19 15:26:51;;;;;;;6.68;3.80;;;;;;;;;;5028805;28;20559;-81
2022/04/19 15:29:20;;;;;;;4.13;3.42;;;;;;;;;;5020835;28;20037;-81
2022/04/19 15:31:47;;;;;;;5.65;3.88;;;;;;;;;;5010768;28;20052;-81